Latest Coastal Weather Observations for Robe Airport

IDS60701

Issued at 7:51 pm CST Monday 26 September 2016 (issued every 10 minutes, with the page automatically refreshed every 10 minutes)

About coastal observations | Map of coastal stations | Coastal observations for SA | Marine services | Other Formats
Station Details ID: 026105 Name: ROBE AIRFIELD Lat: -37.18 Lon: 139.81 Height: 3.0 m
Data from the previous 72 hours. | See also: Recent months at Robe Airport
Date/Time
CST
Temp
°C
Wind Pressure Rain since
9am
mm
Weather Cloud Vis
km
Sea
Height
m
Swell
Dir  Spd
kts
Gust
kts
hPa Trend Height
m
Period
s
Dir
26/07:30pm 10.7 W 10 17 1010.5 - 3.4 - - - - - - -
26/07:00pm 10.3 W 10 17 1010.2 - 3.4 - - - - - - -
26/06:30pm 10.3 WSW 9 15 1009.9 - 3.2 - - - - - - -
26/06:00pm 10.3 W 8 15 1009.6 - 3.2 - - - - - - -
26/05:30pm 10.3 WNW 8 13 1009.3 - 3.2 - - - - - - -
26/05:00pm 11.4 W 9 16 1008.8 - 3.2 - - - - - - -
26/04:30pm 11.0 W 8 15 1008.6 - 3.2 - - - - - - -
26/04:00pm 10.9 WNW 11 17 1008.8 - 3.2 - - - - - - -
26/03:30pm 10.0 NW 15 23 1008.6 - 3.2 - - - - - - -
26/03:00pm 11.7 WNW 11 19 1008.7 - 3.0 - - - - - - -
26/02:30pm 12.2 W 12 18 1008.6 - 3.0 - - - - - - -
26/02:00pm 13.9 WNW 14 21 1008.6 - 3.0 - - - - - - -
26/01:30pm 13.1 WNW 12 17 1008.7 - 3.0 - - - - - - -
26/01:00pm 12.7 WNW 12 18 1009.1 - 3.0 - - - - - - -
26/12:30pm 12.1 NW 14 21 1009.5 - 3.0 - - - - - - -
26/12:00pm 10.7 NW 13 18 1009.3 - 2.8 Recent precip. - - - - - -
26/11:30am 10.4 WNW 14 18 1009.6 - 2.6 - - - - - - -
26/11:00am 10.3 WNW 16 28 1010.0 - 2.4 - - - - - - -
26/10:52am 10.4 WNW 19 30 1010.2 - 1.6 - - - - - - -
26/10:41am 12.4 NNW 18 28 1010.3 - 0.0 - - - - - - -
26/10:30am 13.1 NNW 16 22 1009.7 - 0.0 - - - - - - -
26/10:00am 13.7 N 15 20 1009.6 - 0.0 - - - - - - -
26/09:30am 13.9 N 14 19 1010.0 - 0.0 - - - - - - -
26/09:00am 13.7 N 12 18 1010.2 - 0.0 - - - - - - -
26/08:30am 12.4 N 9 13 1010.2 - 0.0 - - - - - - -
26/08:00am 11.8 N 11 15 1010.5 - 0.0 - - - - - - -
26/07:30am 11.0 N 10 13 1010.7 - 0.0 - - - - - - -
26/07:00am 9.4 NNE 7 8 1010.8 - 0.0 - - - - - - -
26/06:30am 7.6 NNE 6 7 1011.0 - 0.0 - - - - - - -
26/06:00am 7.0 N 5 6 1011.0 - 0.0 - - - - - - -
26/05:30am 7.2 NNE 5 6 1010.4 - 0.0 - - - - - - -
26/05:00am 7.8 NNE 4 5 1010.5 - 0.0 - - - - - - -
26/04:30am 9.7 N 6 8 1010.6 - 0.0 - - - - - - -
26/04:00am 11.7 NNW 9 13 1010.8 - 0.0 - - - - - - -
26/03:30am 11.0 NW 10 14 1011.1 - 0.0 - - - - - - -
26/03:00am 8.9 N 6 9 1011.5 - 0.0 - - - - - - -
26/02:30am 9.6 N 6 10 1011.9 - 0.0 - - - - - - -
26/02:00am 11.3 NW 9 14 1012.2 - 0.0 - - - - - - -
26/01:30am 9.6 NNW 5 9 1012.5 - 0.0 - - - - - - -
26/01:00am 9.8 NNW 6 7 1012.9 - 0.0 - - - - - - -
26/12:30am 10.9 NW 13 24 1013.3 - 0.0 - - - - - - -
26/12:00am 11.5 NNW 10 14 1013.3 - 0.0 - - - - - - -
 
Date/Time
CST
Temp
°C
Wind Pressure Rain since
9am
mm
Weather Cloud Vis
km
Sea
Height
m
Swell
Dir  Spd
kts
Gust
kts
hPa Trend Height
m
Period
s
Dir
25/11:30pm 9.1 N 5 7 1013.6 - 0.0 - - - - - - -
25/11:00pm 8.3 N 5 6 1013.8 - 0.0 - - - - - - -
25/10:30pm 8.3 N 6 7 1013.9 - 0.0 - - - - - - -
25/10:00pm 8.4 N 7 8 1014.1 - 0.0 - - - - - - -
25/09:30pm 7.8 N 4 5 1014.1 - 0.0 - - - - - - -
25/09:00pm 8.5 N 5 7 1014.0 - 0.0 - - - - - - -
25/08:30pm 9.1 N 5 6 1014.0 - 0.0 - - - - - - -
25/08:00pm 9.3 N 4 6 1014.0 - 0.0 - - - - - - -
25/07:30pm 10.5 NNW 5 9 1014.0 - 0.0 - - - - - - -
25/07:00pm 10.1 NW 4 6 1013.7 - 0.0 - - - - - - -
25/06:30pm 10.7 NW 5 7 1013.5 - 0.0 - - - - - - -
25/06:00pm 11.0 NW 6 8 1013.4 - 0.0 - - - - - - -
25/05:30pm 11.9 NW 5 6 1012.9 - 0.0 - - - - - - -
25/05:00pm 11.9 NW 7 9 1013.0 - 0.0 - - - - - - -
25/04:30pm 12.4 NW 8 10 1012.9 - 0.0 - - - - - - -
25/04:00pm 12.3 NW 6 9 1012.7 - 0.0 - - - - - - -
25/03:30pm 12.8 NW 8 11 1012.7 - 0.0 - - - - - - -
25/03:00pm 13.6 WNW 6 10 1012.9 - 0.0 - - - - - - -
25/02:30pm 12.9 W 6 11 1012.9 - 0.0 - - - - - - -
25/02:00pm 12.9 WNW 9 13 1013.0 - 0.0 - - - - - - -
25/01:30pm 13.2 WNW 9 12 1012.9 - 0.0 - - - - - - -
25/01:00pm 13.7 WNW 10 15 1013.4 - 0.0 - - - - - - -
25/12:30pm 13.4 W 9 13 1013.6 - 0.0 - - - - - - -
25/12:00pm 14.3 W 7 12 1013.7 - 0.0 - - - - - - -
25/11:30am 13.7 W 8 15 1013.9 - 0.0 - - - - - - -
25/11:00am 13.1 W 7 12 1014.0 - 0.0 - - - - - - -
25/10:30am 13.5 W 8 13 1014.3 - 0.0 - - - - - - -
25/10:00am 13.1 SW 8 11 1014.5 - 0.0 - - - - - - -
25/09:30am 12.0 SW 9 14 1014.3 - 0.0 - - - - - - -
25/09:00am 12.1 W 10 18 1014.2 - 4.0 - - - - - - -
25/08:30am 12.2 SW 7 11 1013.9 - 4.0 - - - - - - -
25/08:00am 11.2 SW 12 18 1013.6 - 4.0 - - - - - - -
25/07:30am 10.8 W 4 6 1013.2 - 4.0 - - - - - - -
25/07:00am 10.5 W 8 15 1012.9 - 3.8 - - - - - - -
25/06:30am 10.7 SW 7 12 1012.4 - 3.8 - - - - - - -
25/06:00am 9.7 WSW 5 8 1012.0 - 3.8 - - - - - - -
25/05:30am 9.8 WSW 6 10 1011.6 - 3.8 - - - - - - -
25/05:00am 9.7 WSW 6 11 1011.4 - 3.8 - - - - - - -
25/04:30am 9.6 WSW 6 12 1010.9 - 3.8 - - - - - - -
25/04:00am 10.5 WSW 7 12 1010.6 - 3.6 - - - - - - -
25/03:30am 10.2 WSW 7 14 1010.3 - 3.6 - - - - - - -
25/03:00am 9.8 WSW 7 14 1010.3 - 3.6 - - - - - - -
25/02:30am 9.4 WSW 4 7 1010.2 - 3.6 - - - - - - -
25/02:00am 9.7 WSW 12 19 1010.4 - 3.6 - - - - - - -
25/01:30am 9.0 WSW 5 9 1010.5 - 3.6 - - - - - - -
25/01:00am 10.3 WSW 10 18 1010.5 - 3.4 - - - - - - -
25/12:30am 10.3 W 6 9 1010.3 - 3.4 - - - - - - -
25/12:00am 10.1 SW 12 20 1010.1 - 3.4 - - - - - - -
 
Date/Time
CST
Temp
°C
Wind Pressure Rain since
9am
mm
Weather Cloud Vis
km
Sea
Height
m
Swell
Dir  Spd
kts
Gust
kts
hPa Trend Height
m
Period
s
Dir
24/11:30pm 11.0 W 9 14 1010.0 - 3.4 - - - - - - -
24/11:00pm 10.8 W 7 16 1010.2 - 3.4 - - - - - - -
24/10:30pm 10.9 WSW 7 13 1010.0 - 3.4 - - - - - - -
24/10:00pm 11.3 WSW 10 17 1009.7 - 3.4 - - - - - - -
24/09:30pm 11.7 WSW 10 16 1009.6 - 3.4 - - - - - - -
24/09:00pm 11.5 WSW 8 13 1009.5 - 3.4 - - - - - - -
24/08:30pm 11.4 WSW 9 15 1009.4 - 3.4 - - - - - - -
24/08:00pm 11.8 WSW 9 15 1009.1 - 3.4 - - - - - - -
24/07:30pm 11.7 WSW 8 14 1008.6 - 3.4 - - - - - - -
24/07:00pm 11.9 SW 10 17 1007.9 - 3.4 - - - - - - -
24/06:30pm 11.9 WSW 9 15 1007.5 - 3.4 - - - - - - -
24/06:00pm 12.2 SW 9 16 1007.1 - 3.4 - - - - - - -
24/05:30pm 12.4 WSW 11 17 1006.6 - 3.4 - - - - - - -
24/05:00pm 12.9 SW 12 20 1006.1 - 3.4 - - - - - - -
24/04:30pm 13.4 SW 11 19 1005.4 - 3.4 - - - - - - -
24/04:00pm 14.1 WSW 11 23 1005.0 - 3.4 - - - - - - -
24/03:30pm 14.1 SW 13 21 1004.5 - 3.4 - - - - - - -
24/03:00pm 13.2 WSW 12 21 1004.3 - 3.4 - - - - - - -
24/02:30pm 13.1 WSW 10 18 1004.1 - 3.4 - - - - - - -
24/02:00pm 13.1 WSW 10 16 1003.6 - 3.4 - - - - - - -
24/01:30pm 13.6 WSW 10 17 1003.2 - 3.4 - - - - - - -
24/01:00pm 14.1 NNW 13 17 1003.0 - 2.4 - - - - - - -
24/12:30pm 14.2 NNW 12 17 1003.2 - 2.2 - - - - - - -
24/12:00pm 14.0 N 14 20 1003.3 - 2.2 Rain - - - - - -
24/11:30am 13.8 N 13 22 1003.4 - 1.4 - - - - - - -
24/11:00am 13.9 NNW 16 22 1003.4 - 1.2 - - - - - - -
24/10:30am 14.3 NNW 12 20 1003.7 - 0.6 - - - - - - -
24/10:00am 13.3 N 14 19 1003.8 - 0.6 - - - - - - -
24/09:30am 13.5 N 10 14 1004.1 - 0.2 - - - - - - -
24/09:00am 12.8 N 9 13 1004.5 - 0.2 - - - - - - -
24/08:30am 12.5 N 7 10 1004.4 - 0.2 - - - - - - -
24/08:00am 11.9 N 10 13 1004.6 - 0.2 - - - - - - -
24/07:30am 11.8 N 6 8 1004.2 - 0.2 - - - - - - -
24/07:00am 11.7 N 6 9 1004.1 - 0.2 - - - - - - -
24/06:30am 11.8 N 6 8 1004.1 - 0.0 - - - - - - -
24/06:00am 11.4 N 5 8 1003.8 - 0.0 - - - - - - -
24/05:30am 11.4 N 6 8 1003.6 - 0.0 - - - - - - -
24/05:00am 11.0 NNE 5 7 1003.6 - 0.0 - - - - - - -
24/04:30am 11.3 NNE 6 8 1003.7 - 0.0 - - - - - - -
24/04:00am 11.1 N 8 11 1003.8 - 0.0 - - - - - - -
24/03:30am 11.3 NNE 10 15 1003.7 - 0.0 - - - - - - -
24/03:00am 11.5 NNE 11 15 1004.2 - 0.0 - - - - - - -
24/02:30am 9.8 NNE 9 14 1004.8 - 0.0 - - - - - - -
24/02:00am 9.6 NE 9 13 1005.1 - 0.0 - - - - - - -
24/01:30am 9.8 NNE 9 12 1005.6 - 0.0 - - - - - - -
24/01:00am 9.3 NNE 7 9 1006.2 - 0.0 - - - - - - -
24/12:30am 9.4 NNE 8 10 1006.5 - 0.0 - - - - - - -
24/12:00am 9.2 NE 7 9 1007.0 - 0.0 - - - - - - -
 
Date/Time
CST
Temp
°C
Wind Pressure Rain since
9am
mm
Weather Cloud Vis
km
Sea
Height
m
Swell
Dir  Spd
kts
Gust
kts
hPa Trend Height
m
Period
s
Dir
23/11:30pm 8.9 NE 5 7 1007.3 - 0.0 - - - - - - -
23/11:00pm 8.2 NE 5 7 1007.4 - 0.0 - - - - - - -
23/10:30pm 8.9 NE 5 7 1007.8 - 0.0 - - - - - - -
23/10:00pm 9.0 NE 5 6 1007.7 - 0.0 - - - - - - -
23/09:30pm 9.5 ENE 5 7 1007.8 - 0.0 - - - - - - -
23/09:00pm 9.2 ENE 4 5 1008.2 - 0.0 - - - - - - -
23/08:30pm 10.2 E 4 5 1008.6 - 0.0 - - - - - - -
23/08:00pm 9.6 E 4 5 1008.5 - 0.0 - - - - - - -

Other Formats:

Comma delimited format used in spreadsheet applications
http://www.bom.gov.au/fwo/IDS60701/IDS60701.95816.axf

JavaScript Object Notation format (JSON) in row-major order
http://www.bom.gov.au/fwo/IDS60701/IDS60701.95816.json